Time;durP1;ratioP1;P1;durP2;ratioP2;P2;SDS_P1;SDS_P2;PMS_P1;PMS_P2;Temp;Humidity;BMP_temperature;BMP_pressure;BME280_temperature;BME280_humidity;BME280_pressure;Samples;Min_cycle;Max_cycle;Signal;HPM_P1;HPM_P2
2022/06/06 00:00:16;;;;;;;56.30;38.45;;;;;;;14.43;100.00;101036.38;1029088;28;20391;-79
2022/06/06 00:00:48;;;;;;;56.30;38.72;;;;;;;14.42;100.00;101032.03;1031680;28;20046;-78
2022/06/06 00:01:21;;;;;;;63.33;40.10;;;;;;;14.42;100.00;101036.59;1031240;28;20305;-79
2022/06/06 00:01:53;;;;;;;52.97;38.03;;;;;;;14.44;100.00;101039.88;1027900;28;20313;-79
2022/06/06 00:02:26;;;;;;;57.80;38.88;;;;;;;14.44;100.00;101038.00;1029995;28;20298;-80
2022/06/06 00:02:57;;;;;;;60.05;41.13;;;;;;;14.41;100.00;101046.50;1031560;28;20308;-79
2022/06/06 00:03:30;;;;;;;59.72;38.45;;;;;;;14.42;100.00;101039.28;1020037;29;20047;-79
2022/06/06 00:04:01;;;;;;;64.40;38.67;;;;;;;14.39;100.00;101040.56;1024344;28;20311;-78
2022/06/06 00:04:34;;;;;;;57.50;40.28;;;;;;;14.43;100.00;101039.06;1027753;28;20298;-79
2022/06/06 00:05:06;;;;;;;55.92;37.92;;;;;;;14.44;100.00;101037.19;1024940;28;20298;-79
2022/06/06 00:05:42;;;;;;;51.47;36.40;;;;;;;14.40;100.00;101036.03;1031566;28;20687;-79
2022/06/06 00:06:17;;;;;;;51.10;33.60;;;;;;;14.35;100.00;101041.28;1025725;28;20039;-79
2022/06/06 00:06:52;;;;;;;56.95;37.78;;;;;;;14.36;100.00;101038.38;1021115;28;20300;-79
2022/06/06 00:07:25;;;;;;;54.20;36.42;;;;;;;14.39;100.00;101040.56;1019559;29;20305;-79
2022/06/06 00:07:58;;;;;;;59.67;35.72;;;;;;;14.34;100.00;101042.31;1023680;29;20290;-79
2022/06/06 00:08:29;;;;;;;58.33;38.83;;;;;;;14.39;100.00;101035.22;1027388;28;20750;-79
2022/06/06 00:09:02;;;;;;;55.35;37.80;;;;;;;14.42;100.00;101033.91;1019484;28;20056;-79
2022/06/06 00:09:34;;;;;;;54.83;36.63;;;;;;;14.44;100.00;101037.19;1021411;28;20745;-79
2022/06/06 00:10:06;;;;;;;61.97;38.13;;;;;;;14.38;100.00;101030.91;1022729;29;20836;-79
2022/06/06 00:10:39;;;;;;;57.50;38.53;;;;;;;14.41;100.00;101033.09;1020761;28;20048;-79
2022/06/06 00:11:11;;;;;;;61.90;40.67;;;;;;;14.39;100.00;101032.53;1025929;28;20302;-78
2022/06/06 00:11:43;;;;;;;52.83;38.80;;;;;;;14.39;100.00;101035.22;1023309;28;20785;-79
2022/06/06 00:12:16;;;;;;;63.80;40.78;;;;;;;14.42;100.00;101034.72;1026539;28;20313;-79
2022/06/06 00:12:47;;;;;;;54.63;37.10;;;;;;;14.39;100.00;101035.22;1020684;28;20318;-79
2022/06/06 00:13:19;;;;;;;58.53;41.50;;;;;;;14.41;100.00;101038.47;1028314;28;20301;-79
2022/06/06 00:13:51;;;;;;;59.92;42.15;;;;;;;14.40;100.00;101027.97;1024193;28;20314;-80
2022/06/06 00:14:23;;;;;;;59.60;41.08;;;;;;;14.43;100.00;101036.38;1024622;28;20302;-80
2022/06/06 00:14:54;;;;;;;66.30;42.55;;;;;;;14.46;100.00;101030.56;1028009;28;20309;-78
2022/06/06 00:15:26;;;;;;;65.05;43.15;;;;;;;14.43;100.00;101030.22;1028543;28;20306;-79
2022/06/06 00:15:58;;;;;;;62.58;41.17;;;;;;;14.40;100.00;101036.03;1032357;28;20297;-79
2022/06/06 00:16:36;;;;;;;63.15;42.67;;;;;;;14.32;100.00;101031.84;1037127;28;20834;-79
2022/06/06 00:17:13;;;;;;;66.07;42.60;;;;;;;14.40;100.00;101030.66;1037476;28;20313;-78
2022/06/06 00:17:45;;;;;;;59.13;40.72;;;;;;;14.34;100.00;101037.78;1033308;28;20315;-78
2022/06/06 00:18:16;;;;;;;65.97;44.25;;;;;;;14.27;100.00;101031.75;1035522;28;20812;-78
2022/06/06 00:18:48;;;;;;;66.13;44.45;;;;;;;14.27;100.00;101031.75;1035473;28;20698;-79
2022/06/06 00:19:20;;;;;;;70.63;46.83;;;;;;;14.30;100.00;101031.28;1036157;28;20315;-78
2022/06/06 00:19:54;;;;;;;69.53;44.90;;;;;;;14.30;100.00;101042.00;1035330;28;20894;-80
2022/06/06 00:20:26;;;;;;;69.45;44.90;;;;;;;14.34;100.00;101032.41;1038229;28;20408;-80
2022/06/06 00:20:57;;;;;;;83.53;47.45;;;;;;;14.34;100.00;101037.78;1035352;28;20289;-79
2022/06/06 00:21:30;;;;;;;70.35;46.65;;;;;;;14.32;100.00;101034.53;1031513;28;20298;-80
2022/06/06 00:22:01;;;;;;;80.47;47.35;;;;;;;14.33;100.00;101041.50;1031372;28;20700;-79
2022/06/06 00:22:33;;;;;;;78.85;47.88;;;;;;;14.33;100.00;101040.69;1023560;28;20310;-79
2022/06/06 00:23:04;;;;;;;66.03;44.92;;;;;;;14.25;100.00;101033.84;1028325;28;20472;-80
2022/06/06 00:23:37;;;;;;;71.45;43.38;;;;;;;14.26;100.00;101040.84;1030410;28;20730;-79
2022/06/06 00:24:10;;;;;;;80.45;46.28;;;;;;;14.36;100.00;101035.69;1026895;28;20905;-79
2022/06/06 00:24:42;;;;;;;72.43;45.50;;;;;;;14.32;100.00;101039.88;1027948;28;20853;-79
2022/06/06 00:25:14;;;;;;;71.10;43.35;;;;;;;14.33;100.00;101040.69;1028861;28;20302;-79
2022/06/06 00:25:46;;;;;;;73.07;40.63;;;;;;;14.24;100.00;101034.88;1029680;28;20298;-79
2022/06/06 00:26:18;;;;;;;69.45;42.58;;;;;;;14.28;100.00;101038.72;1033097;28;20299;-79
2022/06/06 00:26:49;;;;;;;66.15;41.72;;;;;;;14.25;100.00;101033.84;1025909;28;20299;-79
2022/06/06 00:27:21;;;;;;;67.95;40.47;;;;;;;14.23;100.00;101033.25;1030594;28;20301;-79
2022/06/06 00:27:52;;;;;;;63.30;37.40;;;;;;;14.25;100.00;101033.84;1027482;28;20302;-79
2022/06/06 00:28:25;;;;;;;67.13;41.65;;;;;;;14.27;100.00;101031.75;1027562;28;20297;-79
2022/06/06 00:28:57;;;;;;;65.13;41.10;;;;;;;14.29;100.00;101042.22;1026713;28;20310;-80
2022/06/06 00:29:28;;;;;;;66.60;41.38;;;;;;;14.27;100.00;101037.09;1026738;28;21466;-79
2022/06/06 00:30:00;;;;;;;63.08;39.58;;;;;;;14.27;100.00;101034.44;1029610;28;20401;-79
2022/06/06 00:30:31;;;;;;;70.10;41.42;;;;;;;14.23;100.00;101031.38;1027531;28;20306;-79
2022/06/06 00:35:16;;;;;;;71.40;39.90;;;;;;;14.23;100.00;101035.91;1034075;28;20301;-78
2022/06/06 00:35:48;;;;;;;71.55;41.67;;;;;;;14.24;100.00;101042.91;1027249;28;20043;-79
2022/06/06 00:36:20;;;;;;;66.88;40.83;;;;;;;14.22;100.00;101053.03;1027543;28;20392;-81
2022/06/06 00:36:51;;;;;;;65.63;39.80;;;;;;;14.21;100.00;101043.38;1028066;28;20290;-79
2022/06/06 00:37:26;;;;;;;74.30;42.30;;;;;;;14.27;100.00;101049.69;1031713;28;20309;-79
2022/06/06 00:37:57;;;;;;;73.30;41.28;;;;;;;14.16;100.00;101037.91;1031231;28;20364;-79
2022/06/06 00:38:29;;;;;;;67.28;39.90;;;;;;;14.19;100.00;101045.47;1023389;28;20701;-79
2022/06/06 00:39:03;;;;;;;74.65;40.97;;;;;;;14.20;100.00;101028.34;1023518;28;20438;-77
2022/06/06 00:39:35;;;;;;;76.53;39.90;;;;;;;14.09;100.00;101046.09;1024229;28;20303;-79
2022/06/06 00:40:09;;;;;;;75.95;41.10;;;;;;;14.08;100.00;101038.28;1027372;28;20310;-79
2022/06/06 00:40:40;;;;;;;72.50;39.60;;;;;;;14.19;100.00;101042.81;1026286;28;20311;-79
2022/06/06 00:41:12;;;;;;;75.60;40.67;;;;;;;14.15;100.00;101045.13;1029068;28;20309;-78
2022/06/06 00:41:47;;;;;;;71.53;39.95;;;;;;;14.09;100.00;101039.91;1024522;28;20322;-79
2022/06/06 00:42:29;;;;;;;66.93;37.67;;;;;;;14.04;100.00;101043.31;1031528;28;20312;-78
2022/06/06 00:43:03;;;;;;;69.80;38.03;;;;;;;14.02;100.00;101044.59;1027406;28;20316;-79
2022/06/06 00:43:35;;;;;;;70.72;39.65;;;;;;;14.01;100.00;101046.44;1029916;28;20783;-79
2022/06/06 00:44:13;;;;;;;70.82;37.25;;;;;;;14.03;100.00;101051.56;1021185;28;20304;-79
2022/06/06 00:44:45;;;;;;;68.22;39.03;;;;;;;14.05;100.00;101039.56;1022659;28;20292;-79
2022/06/06 00:45:35;;;;;;;73.40;36.35;;;;;;;14.07;100.00;101048.19;1029224;28;20289;-79
2022/06/06 00:46:08;;;;;;;73.60;37.78;;;;;;;14.07;100.00;101044.69;1039374;28;20796;-80
2022/06/06 00:46:43;;;;;;;65.45;35.53;;;;;;;14.02;100.00;101044.59;1031521;28;20293;-79
2022/06/06 00:47:21;;;;;;;67.50;37.47;;;;;;;14.04;100.00;101042.47;1033100;28;20360;-80
2022/06/06 00:48:17;;;;;;;70.63;36.47;;;;;;;14.02;100.00;101048.06;1027572;28;20290;-78
2022/06/06 00:48:49;;;;;;;61.45;34.30;;;;;;;13.97;100.00;101053.31;1031295;28;20298;-78
2022/06/06 00:49:42;;;;;;;61.40;34.38;;;;;;;14.01;100.00;101043.78;1030520;28;20329;-79
2022/06/06 00:50:17;;;;;;;53.45;32.33;;;;;;;13.95;100.00;101038.50;1026104;28;20310;-80
2022/06/06 00:50:53;;;;;;;57.17;33.53;;;;;;;13.93;100.00;101042.22;1027329;28;20366;-79
2022/06/06 00:51:25;;;;;;;53.10;30.30;;;;;;;13.90;100.00;101048.06;1029611;28;20676;-80
2022/06/06 00:51:57;;;;;;;55.78;31.45;;;;;;;13.92;100.00;101045.16;1022877;28;20295;-79
2022/06/06 00:52:36;;;;;;;49.58;29.73;;;;;;;13.85;100.00;101050.63;1028546;28;20309;-80
2022/06/06 00:53:08;;;;;;;58.92;32.35;;;;;;;13.91;100.00;101044.34;1030934;28;20328;-79
2022/06/06 00:53:42;;;;;;;61.58;34.25;;;;;;;13.84;100.00;101043.66;1024498;28;20314;-80
2022/06/06 00:54:14;;;;;;;58.50;32.88;;;;;;;13.88;100.00;101044.81;1025433;28;20309;-79
2022/06/06 00:54:47;;;;;;;54.35;32.40;;;;;;;13.86;100.00;101052.25;1028143;28;20290;-79
2022/06/06 00:55:21;;;;;;;50.00;30.70;;;;;;;13.86;100.00;101046.09;1032663;28;20309;-79
2022/06/06 00:55:59;;;;;;;46.95;28.15;;;;;;;13.82;100.00;101051.09;1034651;28;20709;-79
2022/06/06 00:56:38;;;;;;;50.67;31.92;;;;;;;13.86;100.00;101046.91;1030723;28;20666;-79
2022/06/06 00:57:13;;;;;;;50.67;28.92;;;;;;;13.83;100.00;101042.00;1024216;28;20298;-78
2022/06/06 00:57:53;;;;;;;53.63;30.48;;;;;;;13.81;100.00;101046.78;1025424;28;20795;-79
2022/06/06 00:58:26;;;;;;;50.63;30.75;;;;;;;13.79;100.00;101046.22;1022272;28;20798;-77
2022/06/06 00:59:02;;;;;;;50.58;31.15;;;;;;;13.71;100.00;101041.22;1024242;28;20299;-78
2022/06/06 00:59:35;;;;;;;48.42;31.83;;;;;;;13.77;100.00;101048.31;1025821;28;20377;-80
2022/06/06 01:00:11;;;;;;;49.70;30.38;;;;;;;13.78;100.00;101049.94;1027323;28;20297;-80
2022/06/06 01:00:43;;;;;;;48.35;30.75;;;;;;;13.75;100.00;101062.97;1027416;28;20294;-79
2022/06/06 01:01:15;;;;;;;45.92;30.10;;;;;;;13.78;100.00;101049.13;1030231;28;20412;-78
2022/06/06 01:01:49;;;;;;;51.45;31.20;;;;;;;13.80;100.00;101044.34;1032870;28;20340;-80
2022/06/06 01:02:21;;;;;;;43.13;27.75;;;;;;;13.77;100.00;101059.00;1026466;28;20306;-79
2022/06/06 01:02:56;;;;;;;52.03;30.70;;;;;;;13.75;100.00;101053.06;1026812;28;20298;-79
2022/06/06 01:03:29;;;;;;;43.47;29.65;;;;;;;13.82;100.00;101056.44;1026090;28;20356;-79
2022/06/06 01:04:03;;;;;;;46.22;30.48;;;;;;;13.78;100.00;101057.97;1027151;28;20381;-80
2022/06/06 01:04:35;;;;;;;55.97;31.55;;;;;;;13.81;100.00;101060.19;1023404;29;20299;-79
2022/06/06 01:05:08;;;;;;;52.22;30.45;;;;;;;13.79;100.00;101059.59;1022342;29;20306;-79
2022/06/06 01:05:41;;;;;;;53.50;31.52;;;;;;;13.80;100.00;101053.19;1024199;28;20306;-79
2022/06/06 01:06:15;;;;;;;55.08;32.95;;;;;;;13.76;100.00;101051.22;1030905;28;20301;-80
2022/06/06 01:06:47;;;;;;;48.65;29.70;;;;;;;13.75;100.00;101061.09;1026335;28;20827;-79
2022/06/06 01:07:19;;;;;;;47.70;31.27;;;;;;;13.73;100.00;101063.19;1023295;28;20782;-80
2022/06/06 01:07:50;;;;;;;56.55;31.10;;;;;;;13.74;100.00;101064.84;1023468;28;20374;-80
2022/06/06 01:08:23;;;;;;;57.47;33.97;;;;;;;13.72;100.00;101060.75;1023797;28;20295;-80
2022/06/06 01:08:54;;;;;;;58.15;35.42;;;;;;;13.67;100.00;101053.41;1029949;28;20305;-79
2022/06/06 01:09:26;;;;;;;49.58;32.15;;;;;;;13.70;100.00;101060.19;1032346;28;20307;-80
2022/06/06 01:09:58;;;;;;;51.33;34.53;;;;;;;13.70;100.00;101058.31;1033679;28;20311;-79
2022/06/06 01:10:29;;;;;;;57.33;36.05;;;;;;;13.73;100.00;101063.19;1033323;28;20348;-80
2022/06/06 01:11:01;;;;;;;60.85;37.38;;;;;;;13.73;100.00;101055.16;1031729;28;20293;-79
2022/06/06 01:11:34;;;;;;;55.58;37.58;;;;;;;13.72;100.00;101055.41;1034441;28;20309;-79
2022/06/06 01:12:13;;;;;;;57.30;35.20;;;;;;;13.70;100.00;101052.16;1033120;28;20363;-80
2022/06/06 01:12:47;;;;;;;58.20;34.83;;;;;;;13.72;100.00;101055.41;1023293;28;20306;-80
2022/06/06 01:13:25;;;;;;;56.08;38.00;;;;;;;13.65;100.00;101055.50;1024121;28;20867;-79
2022/06/06 01:13:57;;;;;;;56.58;36.63;;;;;;;13.67;100.00;101063.28;1025843;28;20310;-80
2022/06/06 01:14:33;;;;;;;65.13;38.17;;;;;;;13.64;100.00;101053.88;1028480;28;20305;-79
2022/06/06 01:15:08;;;;;;;55.40;36.97;;;;;;;13.63;100.00;101060.25;1030278;28;20304;-80
2022/06/06 01:15:49;;;;;;;60.60;36.83;;;;;;;13.67;100.00;101064.09;1026796;28;20302;-80
2022/06/06 01:16:38;;;;;;;55.13;36.20;;;;;;;13.60;100.00;101058.06;1027025;28;20306;-79
2022/06/06 01:17:16;;;;;;;65.47;37.28;;;;;;;13.70;100.00;101058.31;1032502;28;20290;-79
2022/06/06 01:17:54;;;;;;;61.05;37.70;;;;;;;13.67;100.00;101064.09;1031658;28;20335;-79
2022/06/06 01:18:33;;;;;;;61.08;36.10;;;;;;;13.59;100.00;101061.78;1032256;28;20297;-78
2022/06/06 01:19:36;;;;;;;61.25;37.10;;;;;;;13.59;100.00;101056.41;1034467;28;20318;-80
2022/06/06 01:20:28;;;;;;;59.08;37.03;;;;;;;13.60;100.00;101063.41;1033060;28;20285;-79
2022/06/06 01:21:11;;;;;;;57.08;35.15;;;;;;;13.65;100.00;101052.81;1030741;28;20323;-79
2022/06/06 01:22:07;;;;;;;54.42;34.72;;;;;;;13.65;100.00;101066.19;1031838;28;20766;-80
2022/06/06 01:22:43;;;;;;;52.85;33.97;;;;;;;13.65;100.00;101060.03;1027070;28;20444;-79
2022/06/06 01:23:28;;;;;;;58.30;36.92;;;;;;;13.52;100.00;101067.25;1026548;28;20333;-79
2022/06/06 01:24:37;;;;;;;60.20;35.00;;;;;;;13.57;100.00;101069.22;1027563;28;20305;-79
2022/06/06 01:25:13;;;;;;;51.65;34.13;;;;;;;13.56;100.00;101067.59;1031608;28;20305;-79
2022/06/06 01:26:09;;;;;;;54.05;36.10;;;;;;;13.59;100.00;101061.78;1035784;28;20296;-79
2022/06/06 01:26:47;;;;;;;58.95;34.83;;;;;;;13.57;100.00;101069.22;1030817;28;20837;-80
2022/06/06 01:27:40;;;;;;;61.78;35.38;;;;;;;13.58;100.00;101065.50;1031043;28;20736;-80
2022/06/06 01:28:39;;;;;;;61.47;36.58;;;;;;;13.59;100.00;101073.28;1033034;28;20713;-79
2022/06/06 01:29:15;;;;;;;57.97;33.30;;;;;;;13.59;100.00;101073.28;1031296;28;20309;-80
2022/06/06 01:29:52;;;;;;;53.22;33.88;;;;;;;13.55;100.00;101068.63;1031206;28;20491;-80
2022/06/06 01:30:29;;;;;;;50.35;34.35;;;;;;;13.56;100.00;101062.25;1027208;28;20298;-80
2022/06/06 01:31:05;;;;;;;52.17;35.38;;;;;;;13.57;100.00;101074.56;1025198;28;20361;-81
2022/06/06 01:31:48;;;;;;;53.85;32.53;;;;;;;13.46;100.00;101078.88;1025422;28;20311;-80
2022/06/06 01:32:22;;;;;;;50.83;33.40;;;;;;;13.52;100.00;101082.47;1026640;28;20798;-79
2022/06/06 01:32:59;;;;;;;57.53;34.28;;;;;;;13.57;100.00;101069.22;1029162;28;20321;-79
2022/06/06 01:33:47;;;;;;;56.38;33.80;;;;;;;13.52;100.00;101072.59;1028588;28;20286;-80
2022/06/06 01:34:27;;;;;;;50.95;33.83;;;;;;;13.41;100.00;101075.22;1031512;28;20297;-80
2022/06/06 01:34:59;;;;;;;57.53;34.85;;;;;;;13.49;100.00;101073.06;1025569;28;20393;-79
2022/06/06 01:35:37;;;;;;;50.92;32.38;;;;;;;13.54;100.00;101075.03;1027313;28;20082;-79
2022/06/06 01:36:09;;;;;;;53.70;34.28;;;;;;;13.57;100.00;101079.94;1023182;28;20302;-79
2022/06/06 01:36:41;;;;;;;58.42;34.35;;;;;;;13.52;100.00;101080.63;1025361;28;20295;-80
2022/06/06 01:37:31;;;;;;;49.30;32.10;;;;;;;13.47;100.00;101079.69;1024715;28;20306;-81
2022/06/06 01:38:04;;;;;;;53.22;32.58;;;;;;;13.44;100.00;101091.66;1021977;29;21042;-80
2022/06/06 01:38:37;;;;;;;50.63;33.97;;;;;;;13.46;100.00;101080.72;1023638;28;20517;-79
2022/06/06 01:39:11;;;;;;;48.13;34.38;;;;;;;13.52;100.00;101083.28;1028220;28;20305;-80
2022/06/06 01:39:43;;;;;;;53.72;33.30;;;;;;;13.52;100.00;101090.50;1022682;29;20307;-80
2022/06/06 01:40:16;;;;;;;49.92;33.83;;;;;;;13.51;100.00;101087.03;1023284;29;20314;-79
2022/06/06 01:41:07;;;;;;;50.60;32.45;;;;;;;13.51;100.00;101089.69;1023312;29;20406;-79
2022/06/06 01:41:47;;;;;;;57.20;34.45;;;;;;;13.54;100.00;101086.56;1026344;28;20309;-80
2022/06/06 01:42:47;;;;;;;55.38;34.47;;;;;;;13.51;100.00;101076.31;1023376;28;20035;-80
2022/06/06 01:43:21;;;;;;;54.35;33.40;;;;;;;13.52;100.00;101077.13;1027342;28;20325;-79
2022/06/06 01:44:08;;;;;;;55.63;33.33;;;;;;;13.56;100.00;101084.47;1026941;28;20317;-81
2022/06/06 01:44:46;;;;;;;59.25;35.47;;;;;;;13.42;100.00;101088.41;1029088;28;20349;-79
2022/06/06 01:45:27;;;;;;;50.13;33.63;;;;;;;13.50;100.00;101088.06;1029602;28;20298;-81
2022/06/06 01:46:02;;;;;;;51.60;33.47;;;;;;;13.49;100.00;101081.09;1027449;28;20416;-79
2022/06/06 01:46:35;;;;;;;53.85;34.22;;;;;;;13.49;100.00;101081.09;1029476;28;20039;-80
2022/06/06 01:47:11;;;;;;;56.15;35.85;;;;;;;13.49;100.00;101085.63;1027285;28;20304;-80
2022/06/06 01:47:49;;;;;;;53.30;33.65;;;;;;;13.51;100.00;101080.84;1023884;28;20299;-80
2022/06/06 01:48:23;;;;;;;56.88;35.47;;;;;;;13.45;100.00;101087.94;1031847;28;20369;-80
2022/06/06 01:48:56;;;;;;;52.30;34.78;;;;;;;13.35;100.00;101092.19;1032458;28;20300;-80
2022/06/06 01:49:29;;;;;;;48.78;32.50;;;;;;;13.32;100.00;101087.31;1032730;28;20360;-80
2022/06/06 01:50:01;;;;;;;54.47;35.45;;;;;;;13.44;100.00;101080.97;1033536;28;20289;-79
2022/06/06 01:50:36;;;;;;;52.47;35.25;;;;;;;13.42;100.00;101088.41;1035213;28;20297;-80
2022/06/06 01:51:10;;;;;;;48.97;34.10;;;;;;;13.43;100.00;101089.22;1024895;28;20314;-80
2022/06/06 01:51:41;;;;;;;48.58;34.03;;;;;;;13.36;100.00;101085.81;1025195;28;20325;-80
2022/06/06 01:52:16;;;;;;;53.13;35.35;;;;;;;13.42;100.00;101082.22;1019081;29;20798;-80
2022/06/06 01:52:49;;;;;;;52.25;37.50;;;;;;;13.46;100.00;101083.41;1017220;29;20315;-79
2022/06/06 01:53:23;;;;;;;47.50;34.72;;;;;;;13.49;100.00;101088.28;1019359;29;20778;-80
2022/06/06 01:53:55;;;;;;;49.03;35.10;;;;;;;13.51;100.00;101088.88;1019647;29;20311;-79
2022/06/06 01:54:27;;;;;;;51.03;35.30;;;;;;;13.52;100.00;101087.84;1020131;29;20311;-80
2022/06/06 01:54:58;;;;;;;55.08;35.20;;;;;;;13.51;100.00;101080.84;1020994;29;20295;-80
2022/06/06 01:55:33;;;;;;;55.00;37.20;;;;;;;13.50;100.00;101085.38;1026214;28;20297;-80
2022/06/06 01:56:07;;;;;;;52.90;35.90;;;;;;;13.50;100.00;101084.56;1022155;29;20302;-80
2022/06/06 01:56:40;;;;;;;48.30;35.38;;;;;;;13.50;100.00;101079.22;1020410;29;20666;-80
2022/06/06 01:57:15;;;;;;;58.47;37.00;;;;;;;13.46;100.00;101084.22;1020814;29;20788;-80
2022/06/06 01:57:47;;;;;;;50.63;34.85;;;;;;;13.43;100.00;101084.69;1020738;29;20291;-80
2022/06/06 01:58:25;;;;;;;55.53;38.58;;;;;;;13.47;100.00;101093.88;1020222;28;20307;-80
2022/06/06 01:58:57;;;;;;;53.05;35.90;;;;;;;13.51;100.00;101086.19;1024410;28;20677;-80
2022/06/06 01:59:29;;;;;;;53.53;35.28;;;;;;;13.50;100.00;101080.03;1026249;28;20747;-79
2022/06/06 02:00:01;;;;;;;52.00;33.92;;;;;;;13.52;100.00;101087.84;1031232;28;20664;-80
2022/06/06 02:00:37;;;;;;;53.20;35.30;;;;;;;13.50;100.00;101079.22;1030393;28;20325;-80
2022/06/06 02:01:08;;;;;;;47.67;33.22;;;;;;;13.48;100.00;101081.31;1027810;28;20318;-81
2022/06/06 02:01:40;;;;;;;56.72;36.55;;;;;;;13.49;100.00;101082.94;1030523;28;20312;-79
2022/06/06 02:02:12;;;;;;;50.38;33.72;;;;;;;13.47;100.00;101090.38;1031303;28;20301;-80
2022/06/06 02:02:43;;;;;;;54.95;34.78;;;;;;;13.46;100.00;101086.09;1027685;28;20348;-81
2022/06/06 02:03:16;;;;;;;54.28;38.08;;;;;;;13.46;100.00;101083.41;1027066;28;20373;-79
2022/06/06 02:03:48;;;;;;;48.55;36.60;;;;;;;13.51;100.00;101086.19;1025315;28;20356;-80
2022/06/06 02:04:19;;;;;;;50.17;35.95;;;;;;;13.49;100.00;101082.94;1023656;28;20298;-80
2022/06/06 02:04:54;;;;;;;52.47;33.45;;;;;;;13.47;100.00;101082.38;1031050;28;20320;-79
2022/06/06 02:05:26;;;;;;;49.00;35.85;;;;;;;13.50;100.00;101080.03;1032188;28;20305;-81
2022/06/06 02:05:58;;;;;;;49.08;33.67;;;;;;;13.46;100.00;101080.72;1026413;28;20775;-80
2022/06/06 02:06:29;;;;;;;48.95;36.47;;;;;;;13.50;100.00;101088.06;1027070;28;20314;-80
2022/06/06 02:07:01;;;;;;;49.63;37.28;;;;;;;13.48;100.00;101081.31;1027244;28;20310;-79
2022/06/06 02:07:33;;;;;;;50.60;36.17;;;;;;;13.44;100.00;101074.78;1029549;28;20294;-78
2022/06/06 02:08:06;;;;;;;51.42;35.00;;;;;;;13.28;100.00;101076.25;1033766;28;20315;-80
2022/06/06 02:08:38;;;;;;;48.75;34.17;;;;;;;13.42;100.00;101076.84;1029929;28;20766;-81
2022/06/06 02:09:09;;;;;;;46.20;35.40;;;;;;;13.45;100.00;101082.59;1032211;28;20301;-79
2022/06/06 02:09:41;;;;;;;51.20;34.58;;;;;;;13.48;100.00;101075.97;1031425;28;20305;-81
2022/06/06 02:10:16;;;;;;;50.20;35.22;;;;;;;13.47;100.00;101080.50;1027881;28;20313;-80
2022/06/06 02:10:48;;;;;;;50.00;35.20;;;;;;;13.50;100.00;101085.38;1033369;28;20358;-80
2022/06/06 02:11:19;;;;;;;55.97;34.78;;;;;;;13.46;100.00;101084.22;1021645;28;20302;-79
2022/06/06 02:11:51;;;;;;;44.50;33.38;;;;;;;13.47;100.00;101090.38;1025669;28;20355;-80
2022/06/06 02:12:23;;;;;;;48.10;35.10;;;;;;;13.47;100.00;101079.69;1027099;28;20290;-80
2022/06/06 02:12:54;;;;;;;49.10;34.25;;;;;;;13.48;100.00;101084.81;1027288;28;20312;-80
2022/06/06 02:13:27;;;;;;;52.38;34.60;;;;;;;13.47;100.00;101079.69;1027603;28;20341;-80
2022/06/06 02:13:58;;;;;;;50.33;33.45;;;;;;;13.47;100.00;101090.38;1031070;28;20328;-81
2022/06/06 02:14:30;;;;;;;48.75;32.40;;;;;;;13.50;100.00;101089.94;1027264;28;20302;-80
2022/06/06 02:15:03;;;;;;;51.00;33.22;;;;;;;13.51;100.00;101086.19;1024342;28;20314;-80
2022/06/06 02:15:35;;;;;;;52.78;33.10;;;;;;;13.49;100.00;101093.66;1027062;28;20305;-81
2022/06/06 02:16:06;;;;;;;48.25;32.70;;;;;;;13.35;100.00;101081.50;1023898;28;20299;-80
2022/06/06 02:16:39;;;;;;;49.88;34.33;;;;;;;13.44;100.00;101090.84;1017707;29;20299;-80
2022/06/06 02:17:10;;;;;;;52.78;33.15;;;;;;;13.46;100.00;101086.09;1022399;28;20302;-80
2022/06/06 02:17:43;;;;;;;46.28;32.30;;;;;;;13.45;100.00;101084.44;1022802;28;20304;-80
2022/06/06 02:18:15;;;;;;;44.13;32.25;;;;;;;13.47;100.00;101085.03;1023899;28;20385;-80
2022/06/06 02:18:46;;;;;;;46.92;31.40;;;;;;;13.50;100.00;101081.91;1030973;28;20404;-81
2022/06/06 02:19:18;;;;;;;46.88;33.70;;;;;;;13.47;100.00;101079.69;1030995;28;20305;-81
2022/06/06 02:19:49;;;;;;;45.78;28.70;;;;;;;13.53;100.00;101089.47;1027397;28;20290;-81
2022/06/06 02:20:24;;;;;;;43.67;31.08;;;;;;;13.49;100.00;101083.75;1024226;28;20358;-80
2022/06/06 02:20:56;;;;;;;45.88;29.45;;;;;;;13.47;100.00;101079.69;1027076;28;20305;-80
2022/06/06 02:21:27;;;;;;;44.00;30.35;;;;;;;13.46;100.00;101083.41;1027855;28;20334;-82
2022/06/06 02:21:59;;;;;;;42.40;29.45;;;;;;;13.50;100.00;101095.28;1032654;28;20308;-80
2022/06/06 02:22:31;;;;;;;44.50;29.58;;;;;;;13.47;100.00;101085.03;1028317;28;20294;-81
2022/06/06 02:23:03;;;;;;;47.40;29.25;;;;;;;13.49;100.00;101081.09;1027830;28;20297;-80
2022/06/06 02:23:35;;;;;;;44.28;30.80;;;;;;;13.46;100.00;101080.72;1030134;28;20632;-80
2022/06/06 02:24:26;;;;;;;43.60;28.98;;;;;;;13.43;100.00;101084.69;1033879;28;20384;-80
2022/06/06 02:24:57;;;;;;;44.83;28.73;;;;;;;13.42;100.00;101077.69;1031940;28;20125;-81
2022/06/06 02:25:30;;;;;;;41.83;28.00;;;;;;;13.37;100.00;101090.09;1032189;28;20285;-81
2022/06/06 02:26:02;;;;;;;40.22;27.15;;;;;;;13.40;100.00;101089.66;1033483;28;20312;-80
2022/06/06 02:26:41;;;;;;;38.97;26.60;;;;;;;13.40;100.00;101090.47;1033121;28;20324;-81
2022/06/06 02:27:13;;;;;;;38.97;26.42;;;;;;;13.31;100.00;101089.16;1034268;28;20308;-81
2022/06/06 02:27:45;;;;;;;33.85;26.40;;;;;;;13.38;100.00;101087.19;1030486;28;20305;-81
2022/06/06 02:28:16;;;;;;;41.72;26.58;;;;;;;13.39;100.00;101088.03;1028041;28;20304;-80
2022/06/06 02:28:48;;;;;;;36.85;25.63;;;;;;;13.41;100.00;101091.28;1028415;28;20305;-81
2022/06/06 02:29:19;;;;;;;37.35;25.15;;;;;;;13.42;100.00;101090.22;1029755;28;20306;-82
2022/06/06 02:29:51;;;;;;;35.13;25.20;;;;;;;13.39;100.00;101088.03;1029847;28;20679;-81
2022/06/06 02:30:25;;;;;;;40.17;26.50;;;;;;;13.45;100.00;101087.13;1029622;28;20302;-81
2022/06/06 02:30:57;;;;;;;32.13;24.90;;;;;;;13.42;100.00;101090.22;1035729;28;20307;-81
2022/06/06 02:31:29;;;;;;;40.60;25.65;;;;;;;13.40;100.00;101076.28;1035632;28;20296;-81
2022/06/06 02:32:00;;;;;;;35.35;25.98;;;;;;;13.37;100.00;101079.41;1033890;28;20858;-81
2022/06/06 02:32:32;;;;;;;41.42;25.15;;;;;;;13.42;100.00;101082.22;1032823;28;20731;-80
2022/06/06 02:33:04;;;;;;;31.90;23.77;;;;;;;13.43;100.00;101078.50;1036190;28;20317;-81
2022/06/06 02:33:36;;;;;;;31.50;23.70;;;;;;;13.42;100.00;101082.22;1031909;28;20332;-81
2022/06/06 02:34:08;;;;;;;37.20;26.52;;;;;;;13.39;100.00;101082.66;1027435;28;20302;-81
2022/06/06 02:34:39;;;;;;;26.73;22.30;;;;;;;13.33;100.00;101079.06;1023758;29;20310;-81
2022/06/06 02:35:14;;;;;;;39.95;25.88;;;;;;;13.37;100.00;101071.38;1024469;28;20302;-81
2022/06/06 02:35:46;;;;;;;36.88;24.88;;;;;;;13.43;100.00;101070.50;1024892;28;20325;-81
2022/06/06 02:36:17;;;;;;;36.17;24.92;;;;;;;13.40;100.00;101076.28;1025567;28;20381;-81
2022/06/06 02:36:49;;;;;;;34.50;25.08;;;;;;;13.36;100.00;101075.91;1026264;28;20392;-81
2022/06/06 02:37:20;;;;;;;34.10;23.63;;;;;;;13.28;100.00;101071.72;1026019;28;20309;-81
2022/06/06 02:37:54;;;;;;;37.42;25.98;;;;;;;13.30;100.00;101069.63;1023854;28;20310;-82
2022/06/06 02:38:26;;;;;;;36.00;25.92;;;;;;;13.39;100.00;101066.63;1031425;28;20803;-81
2022/06/06 02:38:57;;;;;;;31.13;23.90;;;;;;;13.41;100.00;101069.88;1030970;28;20364;-80
2022/06/06 02:39:29;;;;;;;36.20;24.73;;;;;;;13.41;100.00;101075.22;1026842;28;20341;-82
2022/06/06 02:40:01;;;;;;;30.77;24.02;;;;;;;13.40;100.00;101069.06;1030531;28;20293;-82